sensor_id;sensor_type;location;lat;lon;timestamp;P1;durP1;ratioP1;P2;durP2;ratioP2
8478;SDS011;4276;49.354;6.804;2022-11-15T16:10:15;5.00;;;3.30;;
8478;SDS011;4276;49.354;6.804;2022-11-15T16:12:45;3.22;;;2.92;;
8478;SDS011;4276;49.354;6.804;2022-11-15T16:15:15;4.60;;;3.80;;
8478;SDS011;4276;49.354;6.804;2022-11-15T16:17:52;3.50;;;3.30;;
8478;SDS011;4276;49.354;6.804;2022-11-15T16:20:22;3.67;;;3.38;;
8478;SDS011;4276;49.354;6.804;2022-11-15T16:23:09;3.50;;;3.25;;
8478;SDS011;4276;49.354;6.804;2022-11-15T16:25:41;3.88;;;3.58;;
8478;SDS011;4276;49.354;6.804;2022-11-15T16:28:19;3.78;;;3.47;;
8478;SDS011;4276;49.354;6.804;2022-11-15T16:30:48;4.20;;;3.90;;
8478;SDS011;4276;49.354;6.804;2022-11-15T16:33:21;4.70;;;4.30;;
8478;SDS011;4276;49.354;6.804;2022-11-15T16:35:48;4.38;;;3.88;;
8478;SDS011;4276;49.354;6.804;2022-11-15T16:38:15;4.47;;;4.10;;
8478;SDS011;4276;49.354;6.804;2022-11-15T16:40:42;4.07;;;3.78;;
8478;SDS011;4276;49.354;6.804;2022-11-15T16:43:10;4.10;;;3.70;;
8478;SDS011;4276;49.354;6.804;2022-11-15T16:45:37;4.35;;;3.95;;
8478;SDS011;4276;49.354;6.804;2022-11-15T16:48:03;4.60;;;4.30;;
8478;SDS011;4276;49.354;6.804;2022-11-15T16:50:31;5.78;;;5.18;;
8478;SDS011;4276;49.354;6.804;2022-11-15T16:53:04;6.13;;;5.50;;
8478;SDS011;4276;49.354;6.804;2022-11-15T16:55:31;6.75;;;5.60;;
8478;SDS011;4276;49.354;6.804;2022-11-15T16:57:59;6.15;;;5.55;;
8478;SDS011;4276;49.354;6.804;2022-11-15T17:00:27;5.38;;;4.88;;
8478;SDS011;4276;49.354;6.804;2022-11-15T17:02:53;5.45;;;4.95;;
8478;SDS011;4276;49.354;6.804;2022-11-15T17:05:21;4.75;;;4.35;;
8478;SDS011;4276;49.354;6.804;2022-11-15T17:07:50;5.40;;;4.35;;
8478;SDS011;4276;49.354;6.804;2022-11-15T17:10:20;5.22;;;4.82;;
8478;SDS011;4276;49.354;6.804;2022-11-15T17:12:48;4.40;;;4.00;;
8478;SDS011;4276;49.354;6.804;2022-11-15T17:15:15;4.60;;;4.30;;
8478;SDS011;4276;49.354;6.804;2022-11-15T17:17:42;4.78;;;4.07;;
8478;SDS011;4276;49.354;6.804;2022-11-15T17:20:13;4.75;;;4.35;;
8478;SDS011;4276;49.354;6.804;2022-11-15T17:22:41;4.78;;;4.38;;
8478;SDS011;4276;49.354;6.804;2022-11-15T17:25:07;5.03;;;4.63;;
8478;SDS011;4276;49.354;6.804;2022-11-15T17:27:34;5.05;;;4.65;;
8478;SDS011;4276;49.354;6.804;2022-11-15T17:30:01;4.90;;;4.38;;
8478;SDS011;4276;49.354;6.804;2022-11-15T17:32:28;5.22;;;4.72;;
8478;SDS011;4276;49.354;6.804;2022-11-15T17:34:55;5.65;;;5.25;;
8478;SDS011;4276;49.354;6.804;2022-11-15T17:37:21;7.47;;;6.80;;
8478;SDS011;4276;49.354;6.804;2022-11-15T17:39:48;42.63;;;39.17;;
8478;SDS011;4276;49.354;6.804;2022-11-15T17:42:14;20.85;;;19.38;;
8478;SDS011;4276;49.354;6.804;2022-11-15T17:44:41;9.60;;;8.80;;
8478;SDS011;4276;49.354;6.804;2022-11-15T17:47:07;7.22;;;6.57;;
8478;SDS011;4276;49.354;6.804;2022-11-15T17:49:34;8.13;;;7.32;;
8478;SDS011;4276;49.354;6.804;2022-11-15T17:52:04;7.57;;;6.82;;
8478;SDS011;4276;49.354;6.804;2022-11-15T17:54:33;7.50;;;6.70;;
8478;SDS011;4276;49.354;6.804;2022-11-15T17:57:00;6.63;;;5.88;;
8478;SDS011;4276;49.354;6.804;2022-11-15T17:59:27;7.28;;;5.95;;
8478;SDS011;4276;49.354;6.804;2022-11-15T18:01:54;8.80;;;8.10;;
8478;SDS011;4276;49.354;6.804;2022-11-15T18:04:21;7.70;;;6.95;;
8478;SDS011;4276;49.354;6.804;2022-11-15T18:06:53;7.40;;;6.68;;
8478;SDS011;4276;49.354;6.804;2022-11-15T18:09:21;7.57;;;6.78;;
8478;SDS011;4276;49.354;6.804;2022-11-15T18:11:49;7.65;;;7.03;;
8478;SDS011;4276;49.354;6.804;2022-11-15T18:14:18;7.38;;;6.68;;
8478;SDS011;4276;49.354;6.804;2022-11-15T18:16:45;10.00;;;7.30;;
8478;SDS011;4276;49.354;6.804;2022-11-15T18:19:15;7.35;;;6.75;;
8478;SDS011;4276;49.354;6.804;2022-11-15T18:21:43;8.90;;;8.00;;
8478;SDS011;4276;49.354;6.804;2022-11-15T18:24:29;8.35;;;7.60;;
8478;SDS011;4276;49.354;6.804;2022-11-15T18:27:12;7.20;;;6.47;;
8478;SDS011;4276;49.354;6.804;2022-11-15T18:29:38;5.97;;;5.47;;
8478;SDS011;4276;49.354;6.804;2022-11-15T18:32:05;12.77;;;11.68;;
8478;SDS011;4276;49.354;6.804;2022-11-15T18:34:37;11.65;;;10.68;;
8478;SDS011;4276;49.354;6.804;2022-11-15T18:37:04;7.93;;;7.32;;
8478;SDS011;4276;49.354;6.804;2022-11-15T18:39:31;6.65;;;6.05;;
8478;SDS011;4276;49.354;6.804;2022-11-15T18:41:58;6.43;;;5.82;;
8478;SDS011;4276;49.354;6.804;2022-11-15T18:44:24;7.68;;;6.97;;
8478;SDS011;4276;49.354;6.804;2022-11-15T18:46:55;8.70;;;7.80;;
8478;SDS011;4276;49.354;6.804;2022-11-15T18:49:24;7.53;;;6.82;;
8478;SDS011;4276;49.354;6.804;2022-11-15T18:51:51;6.75;;;6.07;;
8478;SDS011;4276;49.354;6.804;2022-11-15T18:54:17;6.53;;;5.95;;
8478;SDS011;4276;49.354;6.804;2022-11-15T18:56:44;6.35;;;5.85;;
8478;SDS011;4276;49.354;6.804;2022-11-15T18:59:12;6.72;;;6.22;;
8478;SDS011;4276;49.354;6.804;2022-11-15T19:01:40;6.82;;;6.25;;
8478;SDS011;4276;49.354;6.804;2022-11-15T19:04:12;6.35;;;5.80;;
8478;SDS011;4276;49.354;6.804;2022-11-15T19:06:43;6.60;;;5.80;;
8478;SDS011;4276;49.354;6.804;2022-11-15T19:09:11;6.32;;;5.82;;
8478;SDS011;4276;49.354;6.804;2022-11-15T19:11:40;7.55;;;6.85;;
8478;SDS011;4276;49.354;6.804;2022-11-15T19:14:09;6.78;;;6.15;;
8478;SDS011;4276;49.354;6.804;2022-11-15T19:16:38;6.53;;;5.93;;
8478;SDS011;4276;49.354;6.804;2022-11-15T19:19:06;6.78;;;6.03;;
8478;SDS011;4276;49.354;6.804;2022-11-15T19:21:35;6.13;;;5.53;;
8478;SDS011;4276;49.354;6.804;2022-11-15T19:24:02;6.93;;;5.75;;
8478;SDS011;4276;49.354;6.804;2022-11-15T19:26:29;5.47;;;5.00;;
8478;SDS011;4276;49.354;6.804;2022-11-15T19:28:57;5.32;;;4.82;;
8478;SDS011;4276;49.354;6.804;2022-11-15T19:31:25;5.53;;;5.03;;
8478;SDS011;4276;49.354;6.804;2022-11-15T19:33:52;5.57;;;5.15;;
8478;SDS011;4276;49.354;6.804;2022-11-15T19:36:20;5.32;;;4.82;;
8478;SDS011;4276;49.354;6.804;2022-11-15T19:38:54;5.15;;;4.75;;
8478;SDS011;4276;49.354;6.804;2022-11-15T19:41:21;5.25;;;4.85;;
8478;SDS011;4276;49.354;6.804;2022-11-15T19:43:49;5.65;;;4.75;;
8478;SDS011;4276;49.354;6.804;2022-11-15T19:46:18;5.85;;;5.22;;
8478;SDS011;4276;49.354;6.804;2022-11-15T19:48:45;6.85;;;5.95;;
8478;SDS011;4276;49.354;6.804;2022-11-15T19:51:13;6.10;;;5.60;;
8478;SDS011;4276;49.354;6.804;2022-11-15T19:53:53;13.77;;;12.55;;
8478;SDS011;4276;49.354;6.804;2022-11-15T19:56:21;19.60;;;17.95;;
8478;SDS011;4276;49.354;6.804;2022-11-15T19:58:51;14.93;;;13.68;;
8478;SDS011;4276;49.354;6.804;2022-11-15T20:03:52;12.88;;;11.85;;
8478;SDS011;4276;49.354;6.804;2022-11-15T20:06:21;28.70;;;26.20;;
8478;SDS011;4276;49.354;6.804;2022-11-15T20:08:49;53.55;;;48.35;;
8478;SDS011;4276;49.354;6.804;2022-11-15T20:11:16;42.75;;;38.45;;
8478;SDS011;4276;49.354;6.804;2022-11-15T20:13:43;27.15;;;24.45;;
8478;SDS011;4276;49.354;6.804;2022-11-15T20:16:17;33.92;;;30.33;;
8478;SDS011;4276;49.354;6.804;2022-11-15T20:18:45;23.35;;;21.30;;
8478;SDS011;4276;49.354;6.804;2022-11-15T20:21:15;22.30;;;20.17;;
8478;SDS011;4276;49.354;6.804;2022-11-15T20:23:45;11.52;;;10.48;;
8478;SDS011;4276;49.354;6.804;2022-11-15T20:26:13;9.05;;;8.25;;
8478;SDS011;4276;49.354;6.804;2022-11-15T20:28:43;9.38;;;7.75;;
8478;SDS011;4276;49.354;6.804;2022-11-15T20:31:10;8.25;;;7.55;;
8478;SDS011;4276;49.354;6.804;2022-11-15T20:33:37;7.18;;;6.43;;
8478;SDS011;4276;49.354;6.804;2022-11-15T20:36:05;7.57;;;6.88;;
8478;SDS011;4276;49.354;6.804;2022-11-15T20:38:32;8.32;;;6.78;;
8478;SDS011;4276;49.354;6.804;2022-11-15T20:41:00;6.70;;;6.10;;
8478;SDS011;4276;49.354;6.804;2022-11-15T20:43:26;6.53;;;6.03;;
8478;SDS011;4276;49.354;6.804;2022-11-15T20:45:53;7.72;;;7.03;;
8478;SDS011;4276;49.354;6.804;2022-11-15T20:48:20;6.97;;;6.28;;
8478;SDS011;4276;49.354;6.804;2022-11-15T20:50:49;7.03;;;6.35;;
8478;SDS011;4276;49.354;6.804;2022-11-15T20:53:17;7.90;;;7.20;;
8478;SDS011;4276;49.354;6.804;2022-11-15T20:55:48;6.70;;;6.00;;
8478;SDS011;4276;49.354;6.804;2022-11-15T20:58:18;7.35;;;6.65;;
8478;SDS011;4276;49.354;6.804;2022-11-15T21:00:45;7.30;;;6.70;;
8478;SDS011;4276;49.354;6.804;2022-11-15T21:03:12;6.97;;;6.38;;
8478;SDS011;4276;49.354;6.804;2022-11-15T21:05:42;7.03;;;6.32;;
8478;SDS011;4276;49.354;6.804;2022-11-15T21:08:10;6.28;;;5.78;;
8478;SDS011;4276;49.354;6.804;2022-11-15T21:10:37;6.07;;;5.57;;
8478;SDS011;4276;49.354;6.804;2022-11-15T21:13:26;6.22;;;5.72;;
8478;SDS011;4276;49.354;6.804;2022-11-15T21:15:56;6.07;;;5.57;;
8478;SDS011;4276;49.354;6.804;2022-11-15T21:18:23;5.32;;;4.82;;
8478;SDS011;4276;49.354;6.804;2022-11-15T21:20:50;6.55;;;5.43;;
8478;SDS011;4276;49.354;6.804;2022-11-15T21:23:18;5.50;;;5.00;;
8478;SDS011;4276;49.354;6.804;2022-11-15T21:25:49;5.78;;;5.28;;
8478;SDS011;4276;49.354;6.804;2022-11-15T21:28:16;8.43;;;5.32;;
8478;SDS011;4276;49.354;6.804;2022-11-15T21:30:56;6.90;;;5.32;;
8478;SDS011;4276;49.354;6.804;2022-11-15T21:33:24;5.97;;;5.20;;
8478;SDS011;4276;49.354;6.804;2022-11-15T21:35:56;6.60;;;5.60;;
8478;SDS011;4276;49.354;6.804;2022-11-15T21:38:24;6.25;;;5.68;;
8478;SDS011;4276;49.354;6.804;2022-11-15T21:40:53;6.53;;;5.93;;
8478;SDS011;4276;49.354;6.804;2022-11-15T21:43:20;6.25;;;5.75;;
8478;SDS011;4276;49.354;6.804;2022-11-15T21:45:59;6.65;;;6.00;;
8478;SDS011;4276;49.354;6.804;2022-11-15T21:48:28;6.63;;;6.03;;
8478;SDS011;4276;49.354;6.804;2022-11-15T21:51:00;6.30;;;5.80;;
8478;SDS011;4276;49.354;6.804;2022-11-15T21:53:28;5.25;;;4.85;;
8478;SDS011;4276;49.354;6.804;2022-11-15T21:55:55;5.53;;;5.05;;
8478;SDS011;4276;49.354;6.804;2022-11-15T21:58:22;5.85;;;5.20;;
8478;SDS011;4276;49.354;6.804;2022-11-15T22:00:49;5.38;;;4.90;;
8478;SDS011;4276;49.354;6.804;2022-11-15T22:03:35;6.13;;;5.07;;
8478;SDS011;4276;49.354;6.804;2022-11-15T22:06:06;5.50;;;5.00;;
8478;SDS011;4276;49.354;6.804;2022-11-15T22:08:35;5.50;;;5.10;;
8478;SDS011;4276;49.354;6.804;2022-11-15T22:11:02;5.25;;;4.70;;
8478;SDS011;4276;49.354;6.804;2022-11-15T22:13:29;5.22;;;4.70;;
8478;SDS011;4276;49.354;6.804;2022-11-15T22:15:55;5.38;;;4.97;;
8478;SDS011;4276;49.354;6.804;2022-11-15T22:18:22;5.13;;;4.72;;
8478;SDS011;4276;49.354;6.804;2022-11-15T22:20:56;5.72;;;5.00;;
8478;SDS011;4276;49.354;6.804;2022-11-15T22:23:23;6.22;;;5.25;;
8478;SDS011;4276;49.354;6.804;2022-11-15T22:25:53;5.25;;;4.72;;
8478;SDS011;4276;49.354;6.804;2022-11-15T22:28:20;5.25;;;4.78;;
8478;SDS011;4276;49.354;6.804;2022-11-15T22:30:49;5.63;;;5.13;;
8478;SDS011;4276;49.354;6.804;2022-11-15T22:33:18;5.57;;;5.07;;
8478;SDS011;4276;49.354;6.804;2022-11-15T22:35:46;5.72;;;5.18;;
8478;SDS011;4276;49.354;6.804;2022-11-15T22:38:13;5.85;;;5.35;;
8478;SDS011;4276;49.354;6.804;2022-11-15T22:40:40;6.55;;;5.25;;
8478;SDS011;4276;49.354;6.804;2022-11-15T22:43:06;5.40;;;4.85;;
8478;SDS011;4276;49.354;6.804;2022-11-15T22:45:33;6.78;;;5.35;;
8478;SDS011;4276;49.354;6.804;2022-11-15T22:48:00;5.00;;;4.45;;
8478;SDS011;4276;49.354;6.804;2022-11-15T22:50:26;5.65;;;5.18;;
8478;SDS011;4276;49.354;6.804;2022-11-15T22:52:53;5.72;;;5.28;;
8478;SDS011;4276;49.354;6.804;2022-11-15T22:55:19;5.93;;;5.32;;
8478;SDS011;4276;49.354;6.804;2022-11-15T22:57:46;5.68;;;5.28;;
8478;SDS011;4276;49.354;6.804;2022-11-15T23:00:16;5.85;;;5.35;;
8478;SDS011;4276;49.354;6.804;2022-11-15T23:02:43;5.90;;;5.40;;
8478;SDS011;4276;49.354;6.804;2022-11-15T23:05:09;7.00;;;5.47;;
8478;SDS011;4276;49.354;6.804;2022-11-15T23:07:36;6.47;;;5.85;;
8478;SDS011;4276;49.354;6.804;2022-11-15T23:10:03;6.10;;;5.50;;
8478;SDS011;4276;49.354;6.804;2022-11-15T23:12:49;6.47;;;5.85;;
8478;SDS011;4276;49.354;6.804;2022-11-15T23:15:46;6.78;;;6.20;;
8478;SDS011;4276;49.354;6.804;2022-11-15T23:18:36;6.88;;;6.13;;
8478;SDS011;4276;49.354;6.804;2022-11-15T23:21:07;6.35;;;5.75;;
8478;SDS011;4276;49.354;6.804;2022-11-15T23:23:35;6.78;;;6.07;;
8478;SDS011;4276;49.354;6.804;2022-11-15T23:26:02;7.20;;;6.18;;
8478;SDS011;4276;49.354;6.804;2022-11-15T23:28:30;7.05;;;6.40;;
8478;SDS011;4276;49.354;6.804;2022-11-15T23:31:03;8.38;;;6.90;;
8478;SDS011;4276;49.354;6.804;2022-11-15T23:33:51;7.90;;;7.10;;
8478;SDS011;4276;49.354;6.804;2022-11-15T23:36:24;7.65;;;5.88;;
8478;SDS011;4276;49.354;6.804;2022-11-15T23:38:51;7.70;;;7.00;;
8478;SDS011;4276;49.354;6.804;2022-11-15T23:41:18;8.30;;;6.95;;
8478;SDS011;4276;49.354;6.804;2022-11-15T23:43:46;7.95;;;6.80;;
8478;SDS011;4276;49.354;6.804;2022-11-15T23:46:12;6.97;;;6.38;;
8478;SDS011;4276;49.354;6.804;2022-11-15T23:48:39;7.43;;;6.57;;
8478;SDS011;4276;49.354;6.804;2022-11-15T23:51:06;7.00;;;6.40;;
8478;SDS011;4276;49.354;6.804;2022-11-15T23:53:32;7.75;;;7.10;;
8478;SDS011;4276;49.354;6.804;2022-11-15T23:56:03;6.90;;;6.30;;
8478;SDS011;4276;49.354;6.804;2022-11-15T23:58:33;5.03;;;4.63;;
